logo
Search for airport 
image banner adimage banner adimage banner ad
image banner ad

OMRJ - Al Jazeirah

Located in , United Arab Emirates

ICAO - , IATA -

Data provided by Airmate  

General information

Coordinates: N25°39'55" E55°46'27"
Elevation is 10 feet MSL.
 
View others Airports in Umm al-Quwain Emirate

Operational data

Special qualification required
Current time UTC:
Current local time:
METAR: OMRK 241900Z 11003KT CAVOK 24/18 Q1007 A2975
View NOTAMs / SUP AIP / TFR affecting this airport [VIEW]
Communications frequencies: [VIEW]

Runways:

RWY identifierQFULength (ft)Width (ft)SurfaceLDA (ft)
10262566UNK
28262566UNK
16164066UNK
34164066UNK

Airport contact information

Address: United Arab Emirates

Satellite view of OMRJ